KTOI/TOI METAR and TAF weather

Enter ICAO airport designator
Station Type Date Time Source
KTOI METAR 2019/10/15 19:00 UTC NOAA

KTOI 151900Z AUTO 00000KT 5SM -RA BR BKN006 OVC010 21/21 A2999 RMK AO2 P0000 T02110211


Station Type Date Time Source
KTOI Decoded METAR 2019/10/15 19:00 UTC NOAA

TROY MUNICIPAL AIRPORT, AL, United States (KTOI) 31-52N 086-01W 118M
Oct 15, 2019 - 03:00 PM EDT / 2019.10.15 1900 UTC
Wind: Calm:0
Visibility: 5 mile(s):0
Sky conditions: overcast
Weather: light rain; mist
Precipitation last hour: A trace
Temperature: 70.0 F (21.1 C)
Dew Point: 70.0 F (21.1 C)
Relative Humidity: 100%
Pressure (altimeter): 29.99 in. Hg (1015 hPa)
ob: KTOI 151900Z AUTO 00000KT 5SM -RA BR BKN006 OVC010 21/21 A2999 RMK AO2 P0000 T02110211
cycle: 19

Station Type Date Time Source
KTOI TAF 2019/10/15 18:58 UTC NOAA

TAF
AMD KTOI 151756Z 1518/1618 07006KT 4SM RA BR BKN008
FM152200 06005KT 3SM BR VCSH BKN010
FM160400 VRB03KT 3SM BR VCSH OVC005
FM161500 28009KT 4SM BR VCSH BKN025

Example: see airport list